Time;durP1;ratioP1;P1;durP2;ratioP2;P2;SDS_P1;SDS_P2;PMS_P1;PMS_P2;Temp;Humidity;BMP_temperature;BMP_pressure;BME280_temperature;BME280_humidity;BME280_pressure;Samples;Min_cycle;Max_cycle;Signal;HPM_P1;HPM_P2
2022/11/06 00:01:57;;;;;;;716.58;121.05;;;5.10;99.90;;;;;;5011111;28;20050;-63
2022/11/06 00:04:28;;;;;;;547.38;111.53;;;5.10;99.90;;;;;;5026854;28;20045;-62
2022/11/06 00:06:56;;;;;;;600.28;117.32;;;5.10;99.90;;;;;;5030431;28;20073;-64
2022/11/06 00:09:24;;;;;;;975.17;146.63;;;3.90;99.90;;;;;;5030661;28;20061;-63
2022/11/06 00:11:52;;;;;;;858.58;143.20;;;5.10;99.90;;;;;;5023358;28;20238;-64
2022/11/06 00:14:19;;;;;;;467.20;101.72;;;5.10;99.90;;;;;;5026050;28;20045;-63
2022/11/06 00:16:48;;;;;;;459.63;100.43;;;5.10;99.90;;;;;;5030644;28;20049;-63
2022/11/06 00:19:16;;;;;;;647.08;111.15;;;5.10;99.90;;;;;;5030166;28;20057;-63
2022/11/06 00:21:44;;;;;;;679.90;114.78;;;5.10;99.90;;;;;;5030375;28;20042;-63
2022/11/06 00:24:13;;;;;;;607.45;108.57;;;5.10;99.90;;;;;;5030064;28;20045;-66
2022/11/06 00:26:42;;;;;;;430.02;100.28;;;5.10;99.90;;;;;;5025821;28;20054;-63
2022/11/06 00:29:13;;;;;;;439.77;94.22;;;5.00;99.90;;;;;;5022278;28;20041;-63
2022/11/06 00:31:41;;;;;;;455.65;90.72;;;5.10;99.90;;;;;;5030191;28;20038;-64
2022/11/06 00:34:09;;;;;;;464.95;92.13;;;5.00;99.90;;;;;;5029901;28;20053;-64
2022/11/06 00:36:37;;;;;;;576.08;102.40;;;4.90;99.90;;;;;;5029925;28;20084;-66
2022/11/06 00:39:05;;;;;;;378.05;92.03;;;4.90;99.90;;;;;;5030107;28;20619;-67
2022/11/06 00:41:33;;;;;;;375.95;86.20;;;4.80;99.90;;;;;;5025822;28;20592;-69
2022/11/06 00:44:01;;;;;;;331.08;80.32;;;4.70;99.90;;;;;;5021429;28;20041;-63
2022/11/06 00:46:29;;;;;;;353.20;79.43;;;4.70;99.90;;;;;;5014094;28;20057;-63
2022/11/06 00:48:57;;;;;;;295.88;76.65;;;4.70;99.90;;;;;;5021510;28;20052;-63
2022/11/06 00:51:34;;;;;;;320.08;79.47;;;4.60;99.90;;;;;;5029559;28;20046;-64
2022/11/06 00:54:04;;;;;;;380.33;80.90;;;4.70;99.90;;;;;;5029717;28;20409;-64
2022/11/06 00:56:32;;;;;;;496.75;90.07;;;4.60;99.90;;;;;;5028218;28;20045;-64
2022/11/06 00:59:02;;;;;;;401.63;78.85;;;4.50;99.90;;;;;;5008529;28;20122;-63
2022/11/06 01:01:34;;;;;;;;;;;4.50;99.90;;;;;;5009602;28;20065;-64
2022/11/06 01:04:06;;;;;;;299.85;73.03;;;4.50;99.90;;;;;;5019107;28;19944;-63
2022/11/06 01:06:36;;;;;;;294.77;70.93;;;4.50;99.90;;;;;;5026291;28;20045;-64
2022/11/06 01:09:05;;;;;;;469.13;77.43;;;4.50;99.90;;;;;;5016938;28;20042;-64
2022/11/06 01:11:39;;;;;;;241.50;69.82;;;4.50;99.90;;;;;;5008257;28;20042;-63
2022/11/06 01:14:27;;;;;;;274.25;66.40;;;4.40;99.90;;;;;;5025728;28;20045;-64
2022/11/06 01:16:55;;;;;;;293.05;66.20;;;4.40;99.90;;;;;;5028355;28;20044;-64
2022/11/06 01:19:23;;;;;;;237.05;62.08;;;4.30;99.90;;;;;;5029169;28;20049;-63
2022/11/06 01:21:52;;;;;;;224.00;61.30;;;4.40;99.90;;;;;;5029333;28;20405;-63
2022/11/06 01:24:22;;;;;;;329.05;69.07;;;4.30;99.90;;;;;;5028819;28;20429;-64
2022/11/06 01:26:51;;;;;;;191.52;55.33;;;4.30;99.90;;;;;;5026186;28;20049;-71
2022/11/06 01:29:39;;;;;;;220.02;57.17;;;4.20;99.90;;;;;;5026242;28;20478;-65
2022/11/06 01:32:06;;;;;;;210.52;56.55;;;4.20;99.90;;;;;;5027502;28;20041;-65
2022/11/06 01:34:34;;;;;;;166.25;53.42;;;4.20;99.90;;;;;;5028666;28;20049;-63
2022/11/06 01:37:02;;;;;;;158.07;49.30;;;4.20;99.90;;;;;;5027804;28;20064;-67
2022/11/06 01:39:30;;;;;;;183.60;50.15;;;4.20;99.90;;;;;;5026799;28;20053;-64
2022/11/06 01:41:58;;;;;;;227.23;52.90;;;4.20;99.90;;;;;;5011106;28;20050;-62
2022/11/06 01:44:35;;;;;;;168.32;49.58;;;4.30;99.90;;;;;;5025174;28;20053;-63
2022/11/06 01:47:17;;;;;;;198.13;52.70;;;4.30;99.90;;;;;;5027102;28;20060;-69
2022/11/06 01:49:45;;;;;;;180.63;47.67;;;4.30;99.90;;;;;;5027333;28;20049;-71
2022/11/06 01:52:16;;;;;;;137.52;46.88;;;4.30;99.90;;;;;;5028595;28;20045;-69
2022/11/06 01:54:47;;;;;;;145.82;48.17;;;4.30;99.90;;;;;;5028274;28;20389;-71
2022/11/06 01:57:15;;;;;;;177.32;50.30;;;4.40;99.90;;;;;;5025440;28;20045;-65
2022/11/06 01:59:44;;;;;;;152.27;49.38;;;4.40;99.90;;;;;;5025813;28;20056;-65
2022/11/06 02:02:14;;;;;;;164.95;49.35;;;4.40;99.90;;;;;;5028464;28;20045;-63
2022/11/06 02:04:47;;;;;;;191.02;51.42;;;4.50;99.90;;;;;;5027865;28;20060;-66
2022/11/06 02:07:16;;;;;;;145.88;48.13;;;4.50;99.90;;;;;;5028285;28;20045;-65
2022/11/06 02:09:44;;;;;;;132.20;46.03;;;5.10;99.90;;;;;;5027215;28;20049;-63
2022/11/06 02:12:27;;;;;;;152.20;47.58;;;4.60;99.90;;;;;;5026079;28;20042;-68
2022/11/06 02:15:01;;;;;;;204.15;48.47;;;4.60;99.90;;;;;;5028276;28;20041;-65
2022/11/06 02:17:50;;;;;;;215.45;48.63;;;4.70;99.90;;;;;;5028070;28;20060;-69
2022/11/06 02:20:55;;;;;;;201.23;51.60;;;4.70;99.90;;;;;;5028364;28;20478;-70
2022/11/06 02:23:58;;;;;;;298.50;53.78;;;4.80;99.90;;;;;;5027826;28;20045;-66
2022/11/06 02:26:44;;;;;;;302.05;54.42;;;4.80;99.90;;;;;;5028487;28;20498;-69
2022/11/06 02:29:39;;;;;;;312.85;54.15;;;4.90;99.90;;;;;;5026207;28;20046;-68
2022/11/06 02:32:14;;;;;;;237.20;49.22;;;4.90;99.90;;;;;;5012818;28;20556;-67
2022/11/06 02:34:43;;;;;;;217.23;49.22;;;5.00;99.90;;;;;;5026834;28;20050;-69
2022/11/06 02:37:15;;;;;;;187.57;47.17;;;5.00;99.90;;;;;;5011463;28;20651;-65
2022/11/06 02:39:45;;;;;;;266.02;49.97;;;5.00;99.90;;;;;;5029064;28;20049;-63
2022/11/06 02:42:16;;;;;;;229.95;47.25;;;5.10;99.90;;;;;;5030608;28;20045;-64
2022/11/06 02:44:48;;;;;;;196.07;44.03;;;5.10;99.90;;;;;;5011509;28;20042;-63
2022/11/06 02:47:19;;;;;;;192.73;46.63;;;5.20;99.90;;;;;;5027363;28;20056;-64
2022/11/06 02:49:52;;;;;;;271.88;48.85;;;5.30;99.90;;;;;;5031316;28;20050;-62
2022/11/06 02:52:28;;;;;;;213.63;43.90;;;5.30;99.90;;;;;;5031296;28;20042;-63
2022/11/06 02:55:10;;;;;;;186.73;40.42;;;5.30;99.90;;;;;;5031057;28;20511;-65
2022/11/06 02:57:43;;;;;;;180.75;41.97;;;5.40;99.90;;;;;;5031026;28;20507;-66
2022/11/06 03:00:14;;;;;;;192.95;40.03;;;5.40;99.90;;;;;;5015466;28;20052;-63
2022/11/06 03:02:48;;;;;;;196.98;41.28;;;5.50;99.90;;;;;;5035319;28;20492;-64
2022/11/06 03:05:25;;;;;;;221.82;43.47;;;5.50;99.90;;;;;;5034994;28;20056;-64
2022/11/06 03:08:17;;;;;;;255.10;43.92;;;5.60;99.90;;;;;;5034818;28;20041;-63
2022/11/06 03:11:12;;;;;;;235.05;42.58;;;5.60;99.90;;;;;;5035219;28;20041;-66
2022/11/06 03:13:59;;;;;;;278.42;44.70;;;5.70;99.90;;;;;;5034165;28;20050;-64
2022/11/06 03:17:08;;;;;;;318.13;47.10;;;5.60;99.90;;;;;;5034912;28;20508;-71
2022/11/06 03:20:28;;;;;;;301.38;47.80;;;5.70;99.90;;;;;;5034892;28;20401;-69
2022/11/06 03:23:25;;;;;;;299.25;47.17;;;5.80;99.90;;;;;;5033772;28;20056;-71
2022/11/06 03:26:34;;;;;;;305.77;45.55;;;5.80;99.90;;;;;;5033589;28;20046;-71
2022/11/06 03:29:10;;;;;;;326.58;47.08;;;5.80;99.90;;;;;;5032022;28;20064;-71
2022/11/06 03:32:13;;;;;;;326.35;46.13;;;5.80;99.90;;;;;;5034524;28;20057;-63
2022/11/06 03:34:49;;;;;;;273.27;44.30;;;5.80;99.90;;;;;;5034632;28;20050;-64
2022/11/06 03:37:26;;;;;;;295.42;48.15;;;5.90;99.90;;;;;;5032910;28;20052;-62
2022/11/06 03:39:59;;;;;;;330.98;50.88;;;5.90;99.90;;;;;;5034345;28;20064;-62
2022/11/06 03:42:29;;;;;;;352.20;50.03;;;5.90;99.90;;;;;;5034587;28;20037;-65
2022/11/06 03:45:01;;;;;;;341.00;53.92;;;5.90;99.90;;;;;;5034527;28;20052;-63
2022/11/06 03:47:42;;;;;;;281.27;46.97;;;5.90;99.90;;;;;;5034390;28;20065;-64
2022/11/06 03:50:23;;;;;;;328.23;49.67;;;6.00;99.90;;;;;;5029188;28;20515;-63
2022/11/06 03:53:15;;;;;;;406.90;51.88;;;6.00;99.90;;;;;;4996884;28;20049;-63
2022/11/06 03:55:54;;;;;;;342.10;49.65;;;6.00;99.90;;;;;;5014388;28;20053;-62
2022/11/06 03:58:26;;;;;;;354.30;46.97;;;6.00;99.90;;;;;;5013432;28;20049;-62
2022/11/06 04:00:57;;;;;;;334.15;46.25;;;6.00;99.90;;;;;;5014365;28;20042;-62
2022/11/06 04:03:34;;;;;;;301.13;44.78;;;6.10;99.90;;;;;;5013377;28;20065;-62
2022/11/06 04:06:16;;;;;;;349.95;45.63;;;6.10;99.90;;;;;;5013047;28;20057;-64
2022/11/06 04:14:26;;;;;;;258.40;39.83;;;6.20;99.90;;;;;;5032677;28;20041;-63
2022/11/06 04:16:58;;;;;;;237.57;37.53;;;6.20;99.90;;;;;;5033918;28;20474;-62
2022/11/06 04:19:25;;;;;;;267.80;36.15;;;6.20;99.90;;;;;;5034003;28;20045;-62
2022/11/06 04:22:11;;;;;;;226.05;34.85;;;6.20;99.90;;;;;;5033659;28;20489;-62
2022/11/06 04:28:53;;;;;;;202.23;32.95;;;6.30;99.90;;;;;;5032526;28;20045;-62
2022/11/06 04:31:34;;;;;;;234.38;31.90;;;6.30;99.90;;;;;;5033615;28;20072;-63
2022/11/06 04:34:28;;;;;;;235.63;30.67;;;6.40;99.90;;;;;;5033493;28;20046;-64
2022/11/06 04:37:15;;;;;;;210.20;32.05;;;6.40;99.90;;;;;;5032019;28;20041;-62
2022/11/06 04:39:57;;;;;;;239.90;31.55;;;6.40;99.90;;;;;;5033413;28;20054;-63
2022/11/06 04:42:39;;;;;;;224.40;30.88;;;6.40;99.90;;;;;;5033391;28;20076;-62
2022/11/06 04:45:21;;;;;;;178.25;28.40;;;6.50;99.90;;;;;;5033262;28;20045;-62
2022/11/06 04:47:51;;;;;;;198.68;28.50;;;6.50;99.90;;;;;;5033261;28;20045;-61
2022/11/06 04:50:22;;;;;;;196.00;31.20;;;6.50;99.90;;;;;;5033268;28;20045;-63
2022/11/06 04:52:50;;;;;;;208.07;29.58;;;6.50;99.90;;;;;;5033022;28;20049;-62
2022/11/06 04:55:21;;;;;;;200.10;29.52;;;6.60;99.90;;;;;;5033220;28;20053;-63
2022/11/06 04:57:48;;;;;;;157.45;27.75;;;6.50;99.90;;;;;;5032103;28;20042;-62
2022/11/06 05:00:16;;;;;;;185.82;28.52;;;6.50;99.90;;;;;;5032943;28;20510;-63
2022/11/06 05:02:44;;;;;;;192.88;27.55;;;6.60;99.90;;;;;;5033067;28;20045;-62
2022/11/06 05:05:11;;;;;;;189.48;29.40;;;6.60;99.90;;;;;;5032831;28;20045;-62
2022/11/06 05:07:39;;;;;;;246.40;31.77;;;6.60;99.90;;;;;;5032712;28;20485;-62
2022/11/06 05:10:08;;;;;;;214.35;28.50;;;6.60;99.90;;;;;;5032912;28;20041;-61
2022/11/06 05:12:36;;;;;;;199.23;27.27;;;6.70;99.90;;;;;;5032824;28;20505;-61
2022/11/06 05:15:04;;;;;;;200.85;27.35;;;6.70;99.90;;;;;;5031499;28;20302;-63
2022/11/06 05:17:31;;;;;;;209.32;27.38;;;6.70;99.90;;;;;;5032816;28;20046;-62
2022/11/06 05:20:04;;;;;;;239.90;30.40;;;6.70;99.90;;;;;;5032654;28;20046;-62
2022/11/06 05:25:17;;;;;;;162.65;22.73;;;6.80;99.90;;;;;;5031286;28;20417;-63
2022/11/06 05:27:45;;;;;;;182.93;26.52;;;6.80;99.90;;;;;;5032845;28;20045;-62
2022/11/06 05:30:12;;;;;;;151.82;25.80;;;6.80;99.90;;;;;;5032385;28;20057;-65
2022/11/06 05:32:40;;;;;;;131.90;22.73;;;6.80;99.90;;;;;;5032329;28;20049;-63
2022/11/06 05:35:08;;;;;;;132.68;24.65;;;6.90;99.90;;;;;;5032289;28;20053;-66
2022/11/06 05:37:36;;;;;;;133.45;21.95;;;;;;;;;;5031983;28;20057;-67
2022/11/06 05:40:04;;;;;;;140.35;23.67;;;6.90;99.90;;;;;;5030923;28;20061;-68
2022/11/06 05:42:31;;;;;;;108.45;20.90;;;6.90;99.90;;;;;;5033696;28;20052;-66
2022/11/06 05:44:59;;;;;;;105.93;20.42;;;6.90;99.90;;;;;;5031864;28;20045;-65
2022/11/06 05:47:26;;;;;;;116.35;20.48;;;6.90;99.90;;;;;;5025127;28;20041;-63
2022/11/06 05:49:54;;;;;;;85.85;19.35;;;6.90;99.90;;;;;;5009051;28;20394;-64
2022/11/06 05:52:22;;;;;;;98.95;21.70;;;;;;;;;;5008855;28;20045;-63
2022/11/06 05:54:53;;;;;;;96.95;19.20;;;6.90;99.90;;;;;;5008530;28;20061;-63
2022/11/06 05:57:20;;;;;;;74.20;17.05;;;6.90;99.90;;;;;;5011974;28;20604;-63
2022/11/06 05:59:48;;;;;;;89.18;18.92;;;6.90;99.90;;;;;;5028588;28;20049;-63
2022/11/06 06:02:15;;;;;;;95.03;20.17;;;6.90;99.90;;;;;;5017024;28;20385;-63
2022/11/06 06:04:43;;;;;;;96.70;21.13;;;7.00;99.90;;;;;;5005255;28;20050;-62
2022/11/06 06:07:11;;;;;;;86.95;19.83;;;7.00;99.90;;;;;;5006706;28;20042;-62
2022/11/06 06:09:38;;;;;;;87.32;19.77;;;7.00;99.90;;;;;;5025420;28;20049;-63
2022/11/06 06:12:09;;;;;;;103.75;22.30;;;7.00;99.90;;;;;;5025575;28;20133;-62
2022/11/06 06:14:37;;;;;;;77.90;20.05;;;7.00;99.90;;;;;;5024746;28;20049;-63
2022/11/06 06:17:05;;;;;;;93.53;19.80;;;7.00;99.90;;;;;;5026461;28;20038;-63
2022/11/06 06:19:32;;;;;;;93.43;18.27;;;7.10;99.90;;;;;;5009887;28;20510;-63
2022/11/06 06:22:00;;;;;;;85.80;18.67;;;7.00;99.90;;;;;;5007259;28;20052;-62
2022/11/06 06:24:28;;;;;;;83.30;17.67;;;7.00;99.90;;;;;;5025045;28;20057;-64
2022/11/06 06:26:55;;;;;;;100.75;18.08;;;7.00;99.90;;;;;;5025247;28;20481;-63
2022/11/06 06:29:23;;;;;;;79.13;16.80;;;7.00;99.90;;;;;;5027894;28;20551;-62
2022/11/06 06:31:50;;;;;;;78.80;18.08;;;7.00;99.90;;;;;;5026384;28;20045;-63
2022/11/06 06:34:18;;;;;;;95.20;17.98;;;7.00;99.90;;;;;;5021960;28;20462;-62
2022/11/06 06:36:53;;;;;;;88.20;18.65;;;6.90;99.90;;;;;;5024738;28;20061;-63
2022/11/06 06:39:20;;;;;;;78.97;17.92;;;6.90;99.90;;;;;;5028087;28;20056;-62
2022/11/06 06:41:49;;;;;;;83.35;19.52;;;6.90;99.90;;;;;;5028523;28;20046;-63
2022/11/06 06:44:17;;;;;;;93.45;17.92;;;6.90;99.90;;;;;;5027523;28;20065;-62
2022/11/06 06:46:45;;;;;;;84.85;18.75;;;6.90;99.90;;;;;;5025578;28;20042;-63
2022/11/06 06:49:12;;;;;;;84.40;18.02;;;6.90;99.90;;;;;;5008736;28;20053;-62
2022/11/06 06:51:40;;;;;;;94.13;20.80;;;6.90;99.90;;;;;;5004984;28;20506;-63
2022/11/06 06:54:08;;;;;;;84.47;19.88;;;6.90;99.90;;;;;;5022621;28;20050;-63
2022/11/06 06:56:35;;;;;;;87.88;17.33;;;6.90;99.90;;;;;;5026282;28;20057;-63
2022/11/06 06:59:03;;;;;;;90.22;18.40;;;6.90;99.90;;;;;;5027621;28;20060;-62
2022/11/06 07:01:31;;;;;;;113.68;18.88;;;7.00;99.90;;;;;;5026390;28;20064;-62
2022/11/06 07:03:59;;;;;;;96.60;17.52;;;7.00;99.90;;;;;;5013223;28;20038;-62
2022/11/06 07:06:31;;;;;;;95.28;18.35;;;7.00;99.90;;;;;;5006345;28;20397;-62
2022/11/06 07:08:58;;;;;;;78.00;16.08;;;7.00;99.90;;;;;;5024067;28;20041;-62
2022/11/06 07:11:26;;;;;;;88.35;16.42;;;6.90;99.90;;;;;;5026406;28;20041;-63
2022/11/06 07:13:54;;;;;;;83.65;16.73;;;6.90;99.90;;;;;;5024248;28;20663;-63
2022/11/06 07:16:22;;;;;;;70.90;15.20;;;6.90;99.90;;;;;;5025596;28;20405;-64
2022/11/06 07:18:49;;;;;;;76.75;15.20;;;6.90;99.90;;;;;;5022135;28;20045;-67
2022/11/06 07:21:17;;;;;;;81.75;14.68;;;6.90;99.90;;;;;;5008172;28;20061;-65
2022/11/06 07:23:45;;;;;;;74.88;17.80;;;6.90;99.90;;;;;;5021106;28;20053;-64
2022/11/06 07:26:13;;;;;;;103.15;17.98;;;7.00;99.90;;;;;;5025880;28;20041;-63
2022/11/06 07:28:40;;;;;;;110.30;20.70;;;7.00;99.90;;;;;;5027497;28;20049;-63
2022/11/06 07:31:11;;;;;;;106.65;18.98;;;7.00;99.90;;;;;;5027641;28;20045;-62
2022/11/06 07:33:39;;;;;;;103.60;18.50;;;7.00;99.90;;;;;;5020493;28;20417;-63
2022/11/06 07:36:10;;;;;;;87.43;18.45;;;7.10;99.90;;;;;;5008055;28;20060;-65
2022/11/06 07:38:40;;;;;;;103.10;19.40;;;7.10;99.90;;;;;;5020649;28;20125;-67
2022/11/06 07:41:13;;;;;;;94.18;18.63;;;7.10;99.90;;;;;;5026539;28;20052;-66
2022/11/06 07:43:41;;;;;;;86.32;18.92;;;7.10;99.90;;;;;;5026144;28;20053;-64
2022/11/06 07:46:11;;;;;;;82.13;18.63;;;7.20;99.90;;;;;;5028829;28;20068;-65
2022/11/06 07:48:39;;;;;;;88.00;18.42;;;7.20;99.90;;;;;;5022983;28;20038;-67
2022/11/06 07:51:08;;;;;;;91.60;18.75;;;7.20;99.90;;;;;;5011016;28;20478;-65
2022/11/06 07:53:37;;;;;;;80.07;18.33;;;7.20;99.90;;;;;;5022901;28;20612;-62
2022/11/06 07:56:05;;;;;;;81.05;18.23;;;7.30;99.90;;;;;;5030773;28;20045;-65
2022/11/06 07:58:33;;;;;;;83.82;18.23;;;7.30;99.90;;;;;;5026727;28;20037;-63
2022/11/06 08:01:02;;;;;;;71.47;17.23;;;7.40;99.90;;;;;;5029174;28;20049;-63
2022/11/06 08:03:29;;;;;;;88.50;18.92;;;7.50;99.90;;;;;;5022632;28;20054;-63
2022/11/06 08:05:58;;;;;;;73.68;16.60;;;7.50;99.90;;;;;;5006579;28;20056;-68
2022/11/06 08:08:27;;;;;;;80.47;17.15;;;7.50;99.90;;;;;;5021801;28;20041;-68
2022/11/06 08:10:55;;;;;;;81.30;17.20;;;7.50;99.90;;;;;;5030915;28;20405;-68
2022/11/06 08:13:22;;;;;;;96.35;19.77;;;7.50;99.90;;;;;;5030300;28;20049;-65
2022/11/06 08:15:50;;;;;;;79.90;17.30;;;;;;;;;;5029271;28;20049;-64
2022/11/06 08:18:18;;;;;;;82.47;17.42;;;7.60;99.90;;;;;;5030016;28;20041;-66
2022/11/06 08:20:45;;;;;;;61.35;14.25;;;7.60;99.90;;;;;;5010843;28;20057;-63
2022/11/06 08:23:13;;;;;;;69.47;17.58;;;7.70;99.90;;;;;;5020294;28;20057;-64
2022/11/06 08:25:41;;;;;;;72.35;16.95;;;7.70;99.90;;;;;;5030377;28;20045;-65
2022/11/06 08:28:09;;;;;;;77.45;15.20;;;7.70;99.90;;;;;;5029171;28;20045;-67
2022/11/06 08:30:37;;;;;;;72.70;16.98;;;7.70;99.90;;;;;;5030382;28;20044;-69
2022/11/06 08:33:06;;;;;;;79.43;16.83;;;7.80;99.90;;;;;;5030221;28;20049;-71
2022/11/06 08:35:34;;;;;;;81.80;15.05;;;7.80;99.90;;;;;;5029327;28;20049;-71
2022/11/06 08:38:02;;;;;;;69.50;15.30;;;7.80;99.90;;;;;;5028756;28;20057;-71
2022/11/06 08:40:31;;;;;;;52.63;14.63;;;7.80;99.90;;;;;;5029997;28;20104;-70
2022/11/06 08:43:05;;;;;;;75.75;15.55;;;7.80;99.90;;;;;;5029839;28;20532;-71
2022/11/06 08:45:40;;;;;;;68.82;14.95;;;7.80;99.90;;;;;;5029047;28;20050;-71
2022/11/06 08:48:10;;;;;;;71.07;15.68;;;7.90;99.90;;;;;;5028566;28;20065;-72
2022/11/06 08:50:39;;;;;;;58.95;15.27;;;7.90;99.90;;;;;;5012421;28;20046;-72
2022/11/06 08:53:07;;;;;;;71.68;16.00;;;7.90;99.90;;;;;;5018487;28;20887;-70
2022/11/06 08:55:37;;;;;;;68.68;16.20;;;7.90;99.90;;;;;;5029986;28;20053;-68
2022/11/06 08:58:06;;;;;;;58.88;14.77;;;7.90;99.90;;;;;;5028056;28;20526;-71
2022/11/06 09:00:34;;;;;;;63.47;15.10;;;8.00;99.90;;;;;;5030025;28;20057;-72
2022/11/06 09:03:05;;;;;;;53.05;13.15;;;8.00;99.90;;;;;;5029825;28;20513;-71
2022/11/06 09:05:33;;;;;;;61.95;15.60;;;8.10;99.90;;;;;;5014112;28;20046;-64
2022/11/06 09:08:01;;;;;;;72.10;17.40;;;8.10;99.90;;;;;;5017354;28;20415;-71
2022/11/06 09:10:28;;;;;;;54.72;14.75;;;8.20;99.90;;;;;;5029629;28;20056;-64
2022/11/06 09:12:58;;;;;;;73.05;16.65;;;8.20;99.90;;;;;;5029084;28;20534;-66
2022/11/06 09:15:26;;;;;;;72.47;15.00;;;8.30;99.90;;;;;;5029442;28;20053;-64
2022/11/06 09:17:54;;;;;;;61.65;14.77;;;8.30;99.90;;;;;;5027540;28;20056;-66
2022/11/06 09:20:23;;;;;;;60.08;16.65;;;8.30;99.90;;;;;;5016065;28;20050;-64
2022/11/06 09:22:51;;;;;;;63.00;14.80;;;8.40;99.90;;;;;;5015679;28;20042;-63
2022/11/06 09:25:20;;;;;;;63.58;16.15;;;8.40;99.90;;;;;;5028037;28;20042;-65
2022/11/06 09:27:51;;;;;;;66.70;16.65;;;8.40;99.90;;;;;;5028994;28;20072;-64
2022/11/06 09:30:29;;;;;;;70.38;17.35;;;8.50;99.90;;;;;;5028007;28;20405;-65
2022/11/06 09:33:00;;;;;;;63.40;15.82;;;8.50;99.90;;;;;;5029042;28;20397;-62
2022/11/06 09:35:30;;;;;;;67.97;16.65;;;8.50;99.90;;;;;;5015915;28;20049;-61
2022/11/06 09:38:02;;;;;;;66.88;17.55;;;8.60;99.90;;;;;;5016085;28;20068;-62
2022/11/06 09:40:52;;;;;;;55.17;15.30;;;8.60;99.90;;;;;;5028734;28;20068;-63
2022/11/06 09:43:45;;;;;;;53.55;14.57;;;8.80;99.90;;;;;;5028294;28;20390;-62
2022/11/06 09:46:41;;;;;;;54.30;13.55;;;8.80;99.90;;;;;;5028745;28;20045;-63
2022/11/06 09:49:25;;;;;;;41.95;14.18;;;8.90;99.90;;;;;;5027294;28;20389;-62
2022/11/06 09:52:02;;;;;;;48.90;13.68;;;8.90;99.90;;;;;;5007676;28;20057;-63
2022/11/06 09:54:42;;;;;;;55.88;13.88;;;9.00;99.90;;;;;;5022894;28;20709;-63
2022/11/06 09:57:36;;;;;;;50.15;14.25;;;9.20;99.90;;;;;;5028453;28;20045;-62
2022/11/06 10:00:06;;;;;;;45.45;13.25;;;9.40;99.90;;;;;;5028482;28;20041;-63
2022/11/06 10:03:00;;;;;;;56.67;14.20;;;9.30;99.90;;;;;;5012002;28;20049;-62
2022/11/06 10:05:33;;;;;;;48.13;12.95;;;9.50;99.90;;;;;;5013604;28;20050;-66
2022/11/06 10:08:11;;;;;;;57.08;13.65;;;9.60;99.90;;;;;;5015991;28;20058;-64
2022/11/06 10:11:03;;;;;;;40.97;12.63;;;9.60;99.90;;;;;;5027433;28;20056;-62
2022/11/06 10:14:08;;;;;;;46.13;13.88;;;9.70;99.90;;;;;;5028057;28;20390;-63
2022/11/06 10:16:45;;;;;;;52.33;13.65;;;9.80;99.90;;;;;;5028354;28;20050;-64
2022/11/06 10:19:35;;;;;;;52.78;11.95;;;9.80;99.90;;;;;;5028267;28;20053;-64
2022/11/06 10:22:06;;;;;;;48.22;12.80;;;9.70;99.90;;;;;;5007385;28;20057;-69
2022/11/06 10:24:55;;;;;;;43.30;13.13;;;9.70;99.90;;;;;;5022880;28;20041;-70
2022/11/06 10:27:32;;;;;;;48.47;11.90;;;9.70;99.90;;;;;;5028121;28;20071;-68
2022/11/06 10:30:12;;;;;;;29.92;12.05;;;9.70;99.90;;;;;;5028514;28;20470;-64
2022/11/06 10:33:02;;;;;;;43.03;12.15;;;9.60;99.90;;;;;;5028120;28;20563;-68
2022/11/06 10:36:02;;;;;;;48.47;12.43;;;9.60;99.90;;;;;;5016363;28;20049;-68
2022/11/06 10:38:35;;;;;;;42.58;11.38;;;9.60;99.90;;;;;;5025727;28;20299;-65
2022/11/06 10:41:03;;;;;;;39.78;10.73;;;9.60;99.90;;;;;;5028262;28;20049;-63
2022/11/06 10:43:39;;;;;;;36.05;10.68;;;9.60;99.90;;;;;;5027746;28;20046;-64
2022/11/06 10:46:32;;;;;;;34.20;10.13;;;9.60;99.90;;;;;;5026672;28;20065;-66
2022/11/06 10:49:02;;;;;;;35.33;9.75;;;9.60;99.90;;;;;;5027858;28;20393;-65
2022/11/06 10:52:04;;;;;;;39.78;11.88;;;9.60;99.90;;;;;;5022133;28;20053;-63
2022/11/06 10:54:48;;;;;;;32.28;10.40;;;9.70;99.90;;;;;;5027535;28;20053;-63
2022/11/06 10:57:45;;;;;;;36.15;10.77;;;9.70;99.90;;;;;;5027758;28;20045;-67
2022/11/06 11:00:14;;;;;;;32.65;10.50;;;9.70;99.90;;;;;;5027389;28;20052;-67
2022/11/06 11:02:50;;;;;;;38.15;11.05;;;9.90;99.90;;;;;;5027919;28;20060;-73
2022/11/06 11:05:21;;;;;;;27.63;9.85;;;10.00;99.90;;;;;;5022894;28;20060;-63
2022/11/06 11:07:49;;;;;;;31.17;11.07;;;9.90;99.90;;;;;;5013944;28;20477;-64
2022/11/06 11:10:30;;;;;;;35.80;10.55;;;9.90;99.90;;;;;;5027994;28;20477;-64
2022/11/06 11:13:01;;;;;;;28.73;9.02;;;10.00;99.90;;;;;;5026882;28;20657;-63
2022/11/06 11:15:44;;;;;;;27.67;10.00;;;10.00;99.90;;;;;;5026213;28;20052;-63
2022/11/06 11:18:12;;;;;;;32.60;10.52;;;10.20;99.90;;;;;;5027662;28;20386;-62
2022/11/06 11:20:45;;;;;;;29.70;8.57;;;10.30;99.90;;;;;;5021299;28;20049;-61
2022/11/06 11:23:24;;;;;;;25.80;9.30;;;10.30;99.90;;;;;;5020286;28;20090;-65
2022/11/06 11:25:55;;;;;;;23.27;7.75;;;10.50;99.90;;;;;;5030356;28;20045;-63
2022/11/06 11:28:54;;;;;;;26.15;7.72;;;10.60;99.90;;;;;;5010187;28;20532;-62
2022/11/06 11:31:32;;;;;;;20.40;6.93;;;10.60;99.90;;;;;;5010389;28;20522;-63
2022/11/06 11:34:03;;;;;;;18.42;6.90;;;10.70;99.90;;;;;;5026248;28;20045;-64
2022/11/06 11:36:47;;;;;;;20.85;6.32;;;10.90;99.90;;;;;;5025694;28;20058;-62
2022/11/06 11:39:16;;;;;;;16.40;6.95;;;8.50;99.90;;;;;;5028929;28;20042;-63
2022/11/06 11:41:44;;;;;;;22.75;5.95;;;11.10;99.90;;;;;;5031247;28;20057;-61
2022/11/06 11:44:17;;;;;;;15.00;4.90;;;11.20;99.90;;;;;;5030720;28;20072;-65
2022/11/06 11:46:53;;;;;;;15.18;5.35;;;11.30;99.90;;;;;;5031103;28;20045;-62
2022/11/06 11:49:26;;;;;;;13.35;4.60;;;11.30;99.90;;;;;;5031052;28;20042;-70
2022/11/06 11:51:55;;;;;;;23.23;6.13;;;11.20;99.90;;;;;;5025220;28;20084;-70
2022/11/06 11:54:27;;;;;;;17.73;5.85;;;11.20;99.90;;;;;;5029095;28;20049;-71
2022/11/06 11:57:07;;;;;;;18.75;4.93;;;11.10;99.90;;;;;;5030965;28;20050;-67
2022/11/06 11:59:42;;;;;;;10.13;4.75;;;11.10;99.90;;;;;;5011731;28;20049;-63
2022/11/06 12:02:21;;;;;;;17.35;5.00;;;11.00;99.90;;;;;;5008870;28;20053;-65
2022/11/06 12:05:22;;;;;;;12.00;4.65;;;11.00;99.90;;;;;;5024401;28;20041;-64
2022/11/06 12:07:56;;;;;;;19.45;5.13;;;11.00;99.90;;;;;;5016397;28;20369;-61
2022/11/06 12:10:40;;;;;;;16.60;5.63;;;11.00;99.90;;;;;;5030883;28;20053;-62
2022/11/06 12:13:22;;;;;;;18.40;5.15;;;10.90;99.90;;;;;;5029196;28;20049;-61
2022/11/06 12:15:58;;;;;;;15.38;5.20;;;10.90;99.90;;;;;;5030565;28;20412;-62
2022/11/06 12:18:37;;;;;;;16.02;5.53;;;10.90;99.90;;;;;;5030566;28;20057;-62
2022/11/06 12:21:16;;;;;;;15.32;5.07;;;10.90;99.90;;;;;;5024057;28;20050;-62
2022/11/06 12:23:55;;;;;;;13.23;4.75;;;10.90;99.90;;;;;;5021295;28;20501;-62
2022/11/06 12:27:01;;;;;;;15.63;4.78;;;10.90;99.90;;;;;;5030312;28;20056;-63
2022/11/06 12:29:40;;;;;;;14.75;5.03;;;10.80;99.90;;;;;;5012700;28;20046;-64
2022/11/06 12:32:23;;;;;;;16.42;4.60;;;10.80;99.90;;;;;;5009996;28;20046;-64
2022/11/06 12:34:58;;;;;;;22.35;6.20;;;10.80;99.90;;;;;;5026363;28;20053;-63
2022/11/06 12:37:32;;;;;;;10.50;4.07;;;10.80;99.90;;;;;;5027252;28;20053;-64
2022/11/06 12:40:20;;;;;;;18.55;5.57;;;10.70;99.90;;;;;;5030377;28;20049;-65
2022/11/06 12:43:36;;;;;;;20.23;6.07;;;10.70;99.90;;;;;;5028829;28;20041;-63
2022/11/06 12:46:36;;;;;;;17.08;5.22;;;10.70;99.90;;;;;;5010152;28;20064;-63
2022/11/06 12:49:07;;;;;;;;;;;10.60;99.90;;;;;;5026397;28;20056;-64
2022/11/06 12:52:05;;;;;;;17.95;4.90;;;10.60;99.90;;;;;;5021023;28;19921;-62
2022/11/06 12:55:04;;;;;;;13.93;5.50;;;10.70;99.90;;;;;;5028959;28;20049;-63
2022/11/06 12:57:51;;;;;;;17.27;5.22;;;10.70;99.90;;;;;;5028116;28;20049;-63
2022/11/06 13:00:20;;;;;;;13.73;5.10;;;10.60;99.90;;;;;;5029713;28;20674;-66
2022/11/06 13:03:10;;;;;;;17.95;4.93;;;10.60;99.90;;;;;;5023360;28;20413;-64
2022/11/06 13:05:53;;;;;;;25.20;6.82;;;10.60;99.90;;;;;;5028859;28;20049;-65
2022/11/06 13:08:30;;;;;;;19.40;5.30;;;10.60;99.90;;;;;;5019437;28;20489;-63
2022/11/06 13:11:30;;;;;;;14.20;4.63;;;10.60;99.90;;;;;;5029607;28;20053;-63
2022/11/06 13:14:02;;;;;;;17.88;6.30;;;10.60;99.90;;;;;;5027834;28;20045;-62
2022/11/06 13:16:30;;;;;;;18.05;6.68;;;10.60;99.90;;;;;;5029832;28;20056;-62
2022/11/06 13:19:26;;;;;;;22.90;4.38;;;10.60;99.90;;;;;;5027994;28;20064;-62
2022/11/06 13:22:03;;;;;;;14.27;4.72;;;10.60;99.90;;;;;;5027711;28;20046;-62
2022/11/06 13:24:44;;;;;;;14.40;5.40;;;10.60;99.90;;;;;;5029053;28;20081;-66